createdAt,value
2023-03-12T00:01:55.306Z,13.6
2023-03-12T00:07:45.714Z,12.8
2023-03-12T00:13:36.953Z,11.2
2023-03-12T00:19:27.366Z,14.4
2023-03-12T00:25:18.006Z,13.3
2023-03-12T00:31:07.680Z,14.5
2023-03-12T00:36:59.056Z,13.1
2023-03-12T00:42:49.433Z,11.9
2023-03-12T00:48:39.021Z,11.8
2023-03-12T00:54:29.832Z,12.8
2023-03-12T01:00:20.694Z,12.5
2023-03-12T01:06:09.434Z,12
2023-03-12T01:11:59.531Z,11.3
2023-03-12T01:17:50.170Z,13.4
2023-03-12T01:23:40.670Z,11.1
2023-03-12T01:29:33.240Z,10.1
2023-03-12T01:35:23.684Z,12.3
2023-03-12T01:41:15.339Z,11.4
2023-03-12T01:47:05.714Z,12.5
2023-03-12T01:52:55.874Z,10.6
2023-03-12T01:58:46.505Z,12.6
2023-03-12T02:04:36.709Z,11.5
2023-03-12T02:10:27.186Z,12.1
2023-03-12T02:16:17.915Z,11.6
2023-03-12T02:22:08.382Z,15.3
2023-03-12T02:27:59.585Z,11.3
2023-03-12T02:33:50.204Z,11.6
2023-03-12T02:39:40.811Z,12.5
2023-03-12T02:45:32.317Z,10.3
2023-03-12T02:51:22.187Z,10.4
2023-03-12T02:57:13.743Z,11.8
2023-03-12T03:03:04.546Z,10.5
2023-03-12T03:08:55.445Z,10
2023-03-12T03:14:46.302Z,10.1
2023-03-12T03:20:36.411Z,10.1
2023-03-12T03:26:27.213Z,11.5
2023-03-12T03:32:18.099Z,10
2023-03-12T03:38:08.439Z,10.4
2023-03-12T03:43:59.481Z,9
2023-03-12T03:49:50.769Z,9.5
2023-03-12T03:55:41.325Z,8.7
2023-03-12T04:01:32.919Z,11
2023-03-12T04:07:23.012Z,10.4
2023-03-12T04:13:13.417Z,10.6
2023-03-12T04:19:04.149Z,9.7
2023-03-12T04:24:55.668Z,10.7
2023-03-12T04:30:46.125Z,9.8
2023-03-12T04:36:37.159Z,11
2023-03-12T04:42:27.503Z,12.1
2023-03-12T04:48:17.409Z,12
2023-03-12T04:54:08.369Z,15.2
2023-03-12T04:59:59.423Z,12.8
2023-03-12T05:05:49.451Z,10.7
2023-03-12T05:11:42.743Z,10.7
2023-03-12T05:17:32.692Z,12.4
2023-03-12T05:23:23.147Z,9.6
2023-03-12T05:29:13.875Z,11.1
2023-03-12T05:35:04.645Z,10.5
2023-03-12T05:40:55.101Z,9.8
2023-03-12T05:46:44.070Z,12.1
2023-03-12T05:52:33.973Z,14.3
2023-03-12T05:58:25.438Z,13.1
2023-03-12T06:04:16.232Z,9.8
2023-03-12T06:10:21.788Z,10
2023-03-12T06:16:22.732Z,13.5
2023-03-12T06:22:13.666Z,11.5
2023-03-12T06:28:03.242Z,12.3
2023-03-12T06:33:55.514Z,12
2023-03-12T06:39:51.121Z,14.6
2023-03-12T06:45:40.229Z,11.7
2023-03-12T06:51:33.166Z,9.2
2023-03-12T06:57:21.711Z,11.5
2023-03-12T07:03:09.780Z,16
2023-03-12T07:08:59.153Z,13.8
2023-03-12T07:14:51.767Z,10.9
2023-03-12T07:20:40.417Z,13.6
2023-03-12T07:26:29.956Z,15.2
2023-03-12T07:32:20.500Z,12.6
2023-03-12T07:38:11.137Z,11.7
2023-03-12T07:44:00.824Z,12.9
2023-03-12T07:49:53.141Z,14.6
2023-03-12T07:55:48.530Z,16.8
2023-03-12T08:01:39.731Z,13.2
2023-03-12T08:07:39.119Z,12.7
2023-03-12T08:13:29.466Z,16
2023-03-12T08:19:21.274Z,13.7
2023-03-12T08:25:12.606Z,12.2
2023-03-12T08:31:02.672Z,12.1
2023-03-12T08:36:59.396Z,13.2
2023-03-12T08:42:47.626Z,14.5
2023-03-12T08:48:36.122Z,11
2023-03-12T08:54:32.029Z,15.6
2023-03-12T09:00:24.466Z,14.9
2023-03-12T09:06:18.971Z,16.8
2023-03-12T09:12:11.393Z,17.3
2023-03-12T09:18:02.617Z,16
2023-03-12T09:24:05.747Z,15.9
2023-03-12T09:30:06.164Z,15.9
2023-03-12T09:35:58.529Z,16.4
2023-03-12T09:41:49.541Z,18.1
2023-03-12T09:47:44.576Z,15.6
2023-03-12T09:53:35.354Z,17.6
2023-03-12T09:59:26.598Z,15.9
2023-03-12T10:05:15.442Z,16.5
2023-03-12T10:11:07.434Z,14.4
2023-03-12T10:16:56.898Z,18.8
2023-03-12T10:22:52.783Z,15.8
2023-03-12T10:28:50.550Z,15.8
2023-03-12T10:34:43.940Z,15.9
2023-03-12T10:40:43.576Z,17.9
2023-03-12T10:46:34.358Z,16
2023-03-12T10:52:30.075Z,14.8
2023-03-12T10:58:56.418Z,14.2
2023-03-12T11:05:00.290Z,13.5
2023-03-12T11:10:55.527Z,15.1
2023-03-12T11:16:47.600Z,14
2023-03-12T11:23:11.667Z,15.1
2023-03-12T11:29:09.364Z,13.7
2023-03-12T11:35:01.606Z,11.5
2023-03-12T11:40:53.891Z,9
2023-03-12T11:46:46.787Z,18.3
2023-03-12T11:52:37.715Z,8.7
2023-03-12T11:58:29.395Z,7.9
2023-03-12T12:04:19.381Z,8.4
2023-03-12T12:10:10.740Z,6.2
2023-03-12T12:16:02.394Z,5.9
2023-03-12T12:21:53.602Z,5.1
2023-03-12T12:27:44.912Z,5.2
2023-03-12T12:33:34.136Z,4.6
2023-03-12T12:39:27.465Z,3.8
2023-03-12T12:45:17.329Z,3.5
2023-03-12T12:51:10.829Z,3.3
2023-03-12T12:58:10.036Z,4.1
2023-03-12T13:04:00.873Z,5.4
2023-03-12T13:09:54.399Z,4
2023-03-12T13:15:45.434Z,5.6
2023-03-12T13:21:36.948Z,4.7
2023-03-12T13:27:30.645Z,8.1
2023-03-12T13:33:21.601Z,6.3
2023-03-12T13:39:15.980Z,8.7
2023-03-12T13:45:08.216Z,5.2
2023-03-12T13:50:58.885Z,6.6
2023-03-12T13:56:49.515Z,9.8
2023-03-12T14:02:41.036Z,9
2023-03-12T14:08:30.637Z,7.4
2023-03-12T14:14:21.469Z,5.4
2023-03-12T14:20:14.019Z,7
2023-03-12T14:26:06.982Z,8
2023-03-12T14:31:56.484Z,8.6
2023-03-12T14:37:46.219Z,9.8
2023-03-12T14:43:35.922Z,9.9
2023-03-12T14:49:26.443Z,9.7
2023-03-12T14:55:16.869Z,8.2
2023-03-12T15:01:06.878Z,11.8
2023-03-12T15:06:57.282Z,12
2023-03-12T15:12:46.430Z,13.7
2023-03-12T15:18:37.218Z,17.1
2023-03-12T15:24:31.864Z,18.8
2023-03-12T15:30:21.087Z,16.7
2023-03-12T15:36:12.073Z,20.4
2023-03-12T15:42:01.961Z,20.8
2023-03-12T15:47:51.020Z,18.5
2023-03-12T15:53:41.539Z,21.7
2023-03-12T15:59:32.268Z,22
2023-03-12T16:05:23.652Z,21.2
2023-03-12T16:11:14.989Z,22.5
2023-03-12T16:17:10.176Z,25
2023-03-12T16:23:01.967Z,22.2
2023-03-12T16:28:52.055Z,23.5
2023-03-12T16:34:43.458Z,24.1
2023-03-12T16:40:38.114Z,23.4
2023-03-12T16:46:28.113Z,22.8
2023-03-12T16:52:19.431Z,31.5
2023-03-12T16:58:10.801Z,36.2
2023-03-12T17:04:02.258Z,25.4
2023-03-12T17:09:53.109Z,23
2023-03-12T17:15:44.012Z,28.8
2023-03-12T17:21:35.503Z,33.5
2023-03-12T17:27:26.405Z,33.7
2023-03-12T17:33:17.928Z,25.6
2023-03-12T17:39:08.687Z,23.7
2023-03-12T17:44:59.418Z,24.2
2023-03-12T17:50:50.301Z,26.8
2023-03-12T17:56:42.539Z,30.2
2023-03-12T18:02:33.941Z,29.3
2023-03-12T18:08:24.651Z,30.1
2023-03-12T18:14:15.671Z,28.5
2023-03-12T18:20:07.257Z,30.1
2023-03-12T18:25:58.673Z,30.3
2023-03-12T18:31:50.076Z,27.2
2023-03-12T18:37:41.388Z,28.1
2023-03-12T18:43:32.327Z,26.5
2023-03-12T18:49:22.805Z,26.9
2023-03-12T18:55:14.166Z,30.2
2023-03-12T19:01:05.398Z,26.2
2023-03-12T19:06:56.737Z,28
2023-03-12T19:12:59.044Z,29.4
2023-03-12T19:18:48.411Z,30.1
2023-03-12T19:24:39.480Z,28.9
2023-03-12T19:30:29.733Z,26.5
2023-03-12T19:36:21.018Z,30.8
2023-03-12T19:42:11.565Z,30.9
2023-03-12T19:48:02.320Z,28.1
2023-03-12T19:53:53.469Z,33.4
2023-03-12T19:59:43.479Z,32.5
2023-03-12T20:05:34.865Z,25.6
2023-03-12T20:11:26.699Z,31.8
2023-03-12T20:17:17.783Z,26.5
2023-03-12T20:23:08.897Z,29.2
2023-03-12T20:28:59.648Z,27.6
2023-03-12T20:34:50.301Z,29.8
2023-03-12T20:40:41.687Z,30.6
2023-03-12T20:46:32.347Z,29.7
2023-03-12T20:52:22.729Z,29.2
2023-03-12T20:58:14.458Z,33.4
2023-03-12T21:04:05.627Z,30
2023-03-12T21:09:56.911Z,30.2
2023-03-12T21:15:47.089Z,30.5
2023-03-12T21:21:37.773Z,28.2
2023-03-12T21:27:28.618Z,31.2
2023-03-12T21:33:32.425Z,33.3
2023-03-12T21:39:22.942Z,28.6
2023-03-12T21:45:13.564Z,30.7
2023-03-12T21:51:04.576Z,26.4
2023-03-12T21:56:57.187Z,27.3
2023-03-12T22:02:49.687Z,26.8
2023-03-12T22:08:40.165Z,29.1
2023-03-12T22:14:32.023Z,27.1
2023-03-12T22:20:22.912Z,29.8
2023-03-12T22:26:14.603Z,24.6
2023-03-12T22:32:05.011Z,25.9
2023-03-12T22:37:56.078Z,25
2023-03-12T22:43:47.662Z,29.5
2023-03-12T22:49:38.215Z,26.1
2023-03-12T22:55:29.574Z,27.6
2023-03-12T23:01:21.606Z,28.9
2023-03-12T23:07:21.529Z,25
2023-03-12T23:13:11.661Z,27.1
2023-03-12T23:19:04.048Z,23.7
2023-03-12T23:24:56.472Z,27.3
2023-03-12T23:30:46.904Z,26
2023-03-12T23:36:38.703Z,26.3
2023-03-12T23:42:27.646Z,29.6
2023-03-12T23:48:19.990Z,23.2
2023-03-12T23:54:11.886Z,25.7
